sensor_id;sensor_type;location;lat;lon;timestamp;pressure;altitude;pressure_sealevel;temperature;humidity
33454;BME280;39400;49.744;7.012;2023-01-26T00:02:13;96456.34;;;-3.00;100.00
33454;BME280;39400;49.744;7.012;2023-01-26T00:04:38;96452.22;;;-3.11;100.00
33454;BME280;39400;49.744;7.012;2023-01-26T00:07:04;96446.94;;;-2.83;100.00
33454;BME280;39400;49.744;7.012;2023-01-26T00:09:29;96437.59;;;-2.72;100.00
33454;BME280;39400;49.744;7.012;2023-01-26T00:11:54;96439.84;;;-2.93;100.00
33454;BME280;39400;49.744;7.012;2023-01-26T00:14:20;96441.97;;;-3.09;100.00
33454;BME280;39400;49.744;7.012;2023-01-26T00:16:45;96450.63;;;-2.79;100.00
33454;BME280;39400;49.744;7.012;2023-01-26T00:19:10;96438.88;;;-2.83;100.00
33454;BME280;39400;49.744;7.012;2023-01-26T00:21:36;96444.88;;;-2.73;100.00
33454;BME280;39400;49.744;7.012;2023-01-26T00:24:01;96453.81;;;-2.77;100.00
33454;BME280;39400;49.744;7.012;2023-01-26T00:26:26;96452.22;;;-2.78;100.00
33454;BME280;39400;49.744;7.012;2023-01-26T00:28:52;96443.28;;;-2.60;100.00
33454;BME280;39400;49.744;7.012;2023-01-26T00:31:24;96456.06;;;-2.52;100.00
33454;BME280;39400;49.744;7.012;2023-01-26T00:33:52;96455.56;;;-2.54;100.00
33454;BME280;39400;49.744;7.012;2023-01-26T00:36:18;96450.88;;;-2.62;100.00
33454;BME280;39400;49.744;7.012;2023-01-26T00:38:43;96434.06;;;-2.87;100.00
33454;BME280;39400;49.744;7.012;2023-01-26T00:41:09;96437.97;;;-2.79;100.00
33454;BME280;39400;49.744;7.012;2023-01-26T00:43:34;96437.34;;;-2.90;100.00
33454;BME280;39400;49.744;7.012;2023-01-26T00:46:00;96451.81;;;-2.85;100.00
33454;BME280;39400;49.744;7.012;2023-01-26T00:48:25;96457.94;;;-2.99;100.00
33454;BME280;39400;49.744;7.012;2023-01-26T00:50:51;96459.56;;;-2.98;100.00
33454;BME280;39400;49.744;7.012;2023-01-26T00:53:17;96462.28;;;-2.70;100.00
33454;BME280;39400;49.744;7.012;2023-01-26T00:55:42;96459.34;;;-2.88;100.00
33454;BME280;39400;49.744;7.012;2023-01-26T00:58:08;96464.41;;;-2.67;100.00
33454;BME280;39400;49.744;7.012;2023-01-26T01:00:35;96456.66;;;-2.55;100.00
33454;BME280;39400;49.744;7.012;2023-01-26T01:03:03;96453.63;;;-2.67;100.00
33454;BME280;39400;49.744;7.012;2023-01-26T01:05:31;96454.97;;;-2.51;100.00
33454;BME280;39400;49.744;7.012;2023-01-26T01:07:59;96457.84;;;-2.61;100.00
33454;BME280;39400;49.744;7.012;2023-01-26T01:10:25;96439.91;;;-2.52;100.00
33454;BME280;39400;49.744;7.012;2023-01-26T01:12:52;96452.88;;;-2.54;100.00
33454;BME280;39400;49.744;7.012;2023-01-26T01:15:17;96445.88;;;-2.55;100.00
33454;BME280;39400;49.744;7.012;2023-01-26T01:17:42;96449.13;;;-2.85;100.00
33454;BME280;39400;49.744;7.012;2023-01-26T01:20:09;96453.38;;;-2.84;100.00
33454;BME280;39400;49.744;7.012;2023-01-26T01:22:35;96454.22;;;-2.70;100.00
33454;BME280;39400;49.744;7.012;2023-01-26T01:25:01;96457.56;;;-2.92;100.00
33454;BME280;39400;49.744;7.012;2023-01-26T01:27:27;96437.97;;;-2.79;100.00
33454;BME280;39400;49.744;7.012;2023-01-26T01:29:53;96447.59;;;-2.92;100.00
33454;BME280;39400;49.744;7.012;2023-01-26T01:32:18;96450.69;;;-2.84;100.00
33454;BME280;39400;49.744;7.012;2023-01-26T01:34:48;96451.72;;;-3.13;100.00
33454;BME280;39400;49.744;7.012;2023-01-26T01:37:14;96446.53;;;-3.09;100.00
33454;BME280;39400;49.744;7.012;2023-01-26T01:39:39;96435.00;;;-3.10;100.00
33454;BME280;39400;49.744;7.012;2023-01-26T01:42:05;96433.47;;;-2.83;100.00
33454;BME280;39400;49.744;7.012;2023-01-26T01:44:33;96430.09;;;-2.75;100.00
33454;BME280;39400;49.744;7.012;2023-01-26T01:47:05;96428.00;;;-2.78;100.00
33454;BME280;39400;49.744;7.012;2023-01-26T01:49:38;96429.69;;;-2.82;100.00
33454;BME280;39400;49.744;7.012;2023-01-26T01:52:13;96427.69;;;-2.91;100.00
33454;BME280;39400;49.744;7.012;2023-01-26T01:54:51;96422.06;;;-3.08;100.00
33454;BME280;39400;49.744;7.012;2023-01-26T01:57:29;96427.03;;;-3.15;100.00
33454;BME280;39400;49.744;7.012;2023-01-26T02:00:08;96425.66;;;-2.99;100.00
33454;BME280;39400;49.744;7.012;2023-01-26T02:02:41;96426.06;;;-2.92;100.00
33454;BME280;39400;49.744;7.012;2023-01-26T02:05:25;96405.38;;;-2.77;100.00
33454;BME280;39400;49.744;7.012;2023-01-26T02:07:53;96411.78;;;-2.73;100.00
33454;BME280;39400;49.744;7.012;2023-01-26T02:10:18;96405.47;;;-2.82;100.00
33454;BME280;39400;49.744;7.012;2023-01-26T02:12:46;96404.75;;;-2.88;100.00
33454;BME280;39400;49.744;7.012;2023-01-26T02:15:13;96397.81;;;-2.75;100.00
33454;BME280;39400;49.744;7.012;2023-01-26T02:17:39;96403.09;;;-2.70;100.00
33454;BME280;39400;49.744;7.012;2023-01-26T02:28:16;96385.31;;;-2.99;100.00
33454;BME280;39400;49.744;7.012;2023-01-26T02:30:43;96402.13;;;-3.07;100.00
33454;BME280;39400;49.744;7.012;2023-01-26T02:33:19;96387.34;;;-2.91;100.00
33454;BME280;39400;49.744;7.012;2023-01-26T02:35:46;96385.81;;;-2.97;100.00
33454;BME280;39400;49.744;7.012;2023-01-26T02:38:12;96385.09;;;-3.02;100.00
33454;BME280;39400;49.744;7.012;2023-01-26T02:40:42;96371.44;;;-3.06;100.00
33454;BME280;39400;49.744;7.012;2023-01-26T02:43:09;96378.00;;;-3.12;100.00
33454;BME280;39400;49.744;7.012;2023-01-26T02:45:37;96374.03;;;-3.15;100.00
33454;BME280;39400;49.744;7.012;2023-01-26T02:48:05;96370.09;;;-2.90;100.00
33454;BME280;39400;49.744;7.012;2023-01-26T02:50:31;96361.50;;;-2.92;100.00
33454;BME280;39400;49.744;7.012;2023-01-26T02:52:57;96352.25;;;-2.85;100.00
33454;BME280;39400;49.744;7.012;2023-01-26T02:55:23;96354.03;;;-2.81;100.00
33454;BME280;39400;49.744;7.012;2023-01-26T02:57:50;96351.75;;;-2.88;100.00
33454;BME280;39400;49.744;7.012;2023-01-26T03:00:21;96341.81;;;-2.73;100.00
33454;BME280;39400;49.744;7.012;2023-01-26T03:02:50;96342.81;;;-2.69;100.00
33454;BME280;39400;49.744;7.012;2023-01-26T03:05:16;96338.41;;;-2.65;100.00
33454;BME280;39400;49.744;7.012;2023-01-26T03:07:41;96340.00;;;-2.64;100.00
33454;BME280;39400;49.744;7.012;2023-01-26T03:10:08;96339.41;;;-2.61;100.00
33454;BME280;39400;49.744;7.012;2023-01-26T03:12:33;96337.41;;;-2.69;100.00
33454;BME280;39400;49.744;7.012;2023-01-26T03:14:59;96335.13;;;-2.62;100.00
33454;BME280;39400;49.744;7.012;2023-01-26T03:17:24;96335.59;;;-2.60;100.00
33454;BME280;39400;49.744;7.012;2023-01-26T03:19:50;96342.59;;;-2.59;100.00
33454;BME280;39400;49.744;7.012;2023-01-26T03:22:15;96324.97;;;-2.65;100.00
33454;BME280;39400;49.744;7.012;2023-01-26T03:24:41;96335.22;;;-2.67;100.00
33454;BME280;39400;49.744;7.012;2023-01-26T03:27:08;96334.81;;;-2.74;100.00
33454;BME280;39400;49.744;7.012;2023-01-26T03:29:34;96325.28;;;-2.80;100.00
33454;BME280;39400;49.744;7.012;2023-01-26T03:32:00;96324.25;;;-2.84;100.00
33454;BME280;39400;49.744;7.012;2023-01-26T03:34:27;96320.69;;;-2.80;100.00
33454;BME280;39400;49.744;7.012;2023-01-26T03:36:52;96319.25;;;-2.77;100.00
33454;BME280;39400;49.744;7.012;2023-01-26T03:39:19;96314.50;;;-2.53;100.00
33454;BME280;39400;49.744;7.012;2023-01-26T03:41:45;96315.31;;;-2.66;100.00
33454;BME280;39400;49.744;7.012;2023-01-26T03:44:10;96318.88;;;-2.84;100.00
33454;BME280;39400;49.744;7.012;2023-01-26T03:46:36;96315.31;;;-2.80;100.00
33454;BME280;39400;49.744;7.012;2023-01-26T03:49:03;96312.28;;;-2.78;100.00
33454;BME280;39400;49.744;7.012;2023-01-26T03:51:29;96318.28;;;-2.68;100.00
33454;BME280;39400;49.744;7.012;2023-01-26T03:53:55;96311.50;;;-2.65;100.00
33454;BME280;39400;49.744;7.012;2023-01-26T03:56:21;96317.66;;;-2.51;100.00
33454;BME280;39400;49.744;7.012;2023-01-26T03:58:51;96310.91;;;-2.48;100.00
33454;BME280;39400;49.744;7.012;2023-01-26T04:01:18;96306.44;;;-2.67;100.00
33454;BME280;39400;49.744;7.012;2023-01-26T04:03:48;96315.78;;;-2.50;100.00
33454;BME280;39400;49.744;7.012;2023-01-26T04:06:14;96314.91;;;-2.59;100.00
33454;BME280;39400;49.744;7.012;2023-01-26T04:08:39;96315.31;;;-2.66;100.00
33454;BME280;39400;49.744;7.012;2023-01-26T04:11:05;96316.50;;;-2.72;100.00
33454;BME280;39400;49.744;7.012;2023-01-26T04:13:30;96320.88;;;-2.76;100.00
33454;BME280;39400;49.744;7.012;2023-01-26T04:16:00;96316.50;;;-2.72;100.00
33454;BME280;39400;49.744;7.012;2023-01-26T04:18:25;96310.50;;;-2.69;100.00
33454;BME280;39400;49.744;7.012;2023-01-26T04:20:52;96311.19;;;-2.77;100.00
33454;BME280;39400;49.744;7.012;2023-01-26T04:23:20;96309.81;;;-2.75;100.00
33454;BME280;39400;49.744;7.012;2023-01-26T04:25:48;96310.97;;;-2.95;100.00
33454;BME280;39400;49.744;7.012;2023-01-26T04:28:14;96305.31;;;-3.07;100.00
33454;BME280;39400;49.744;7.012;2023-01-26T04:30:40;96300.63;;;-2.88;100.00
33454;BME280;39400;49.744;7.012;2023-01-26T04:33:05;96302.63;;;-3.07;100.00
33454;BME280;39400;49.744;7.012;2023-01-26T04:35:30;96304.72;;;-3.04;100.00
33454;BME280;39400;49.744;7.012;2023-01-26T04:37:56;96292.97;;;-3.08;100.00
33454;BME280;39400;49.744;7.012;2023-01-26T04:40:22;96303.91;;;-3.18;100.00
33454;BME280;39400;49.744;7.012;2023-01-26T04:42:48;96297.31;;;-3.12;100.00
33454;BME280;39400;49.744;7.012;2023-01-26T04:45:14;96296.91;;;-3.19;100.00
33454;BME280;39400;49.744;7.012;2023-01-26T04:47:40;96297.31;;;-3.12;100.00
33454;BME280;39400;49.744;7.012;2023-01-26T04:50:06;96293.16;;;-3.04;100.00
33454;BME280;39400;49.744;7.012;2023-01-26T04:52:31;96290.38;;;-2.85;100.00
33454;BME280;39400;49.744;7.012;2023-01-26T04:54:58;96296.84;;;-2.87;100.00
33454;BME280;39400;49.744;7.012;2023-01-26T04:57:23;96288.47;;;-2.85;100.00
33454;BME280;39400;49.744;7.012;2023-01-26T04:59:50;96288.97;;;-2.97;100.00
33454;BME280;39400;49.744;7.012;2023-01-26T05:02:17;96293.44;;;-3.06;100.00
33454;BME280;39400;49.744;7.012;2023-01-26T05:04:43;96284.28;;;-2.91;100.00
33454;BME280;39400;49.744;7.012;2023-01-26T05:07:09;96293.78;;;-2.94;100.00
33454;BME280;39400;49.744;7.012;2023-01-26T05:09:36;96281.41;;;-2.95;100.00
33454;BME280;39400;49.744;7.012;2023-01-26T05:12:20;96280.50;;;-2.76;100.00
33454;BME280;39400;49.744;7.012;2023-01-26T05:15:05;96283.00;;;-2.66;100.00
33454;BME280;39400;49.744;7.012;2023-01-26T05:17:44;96282.81;;;-2.83;100.00
33454;BME280;39400;49.744;7.012;2023-01-26T05:20:32;96287.41;;;-2.98;100.00
33454;BME280;39400;49.744;7.012;2023-01-26T05:23:04;96280.00;;;-2.78;100.00
33454;BME280;39400;49.744;7.012;2023-01-26T05:26:06;96285.38;;;-2.78;100.00
33454;BME280;39400;49.744;7.012;2023-01-26T05:28:42;96285.50;;;-3.11;100.00
33454;BME280;39400;49.744;7.012;2023-01-26T05:31:08;96294.94;;;-3.14;100.00
33454;BME280;39400;49.744;7.012;2023-01-26T05:33:34;96298.13;;;-3.25;100.00
33454;BME280;39400;49.744;7.012;2023-01-26T05:36:04;96307.50;;;-2.95;100.00
33454;BME280;39400;49.744;7.012;2023-01-26T05:38:30;96305.41;;;-2.84;100.00
33454;BME280;39400;49.744;7.012;2023-01-26T05:40:55;96294.38;;;-2.97;100.00
33454;BME280;39400;49.744;7.012;2023-01-26T05:43:22;96295.91;;;-3.23;100.00
33454;BME280;39400;49.744;7.012;2023-01-26T05:46:10;96298.13;;;-3.25;100.00
33454;BME280;39400;49.744;7.012;2023-01-26T05:48:38;96301.06;;;-3.41;100.00
33454;BME280;39400;49.744;7.012;2023-01-26T05:51:03;96298.38;;;-3.41;100.00
33454;BME280;39400;49.744;7.012;2023-01-26T05:53:30;96299.22;;;-3.13;100.00
33454;BME280;39400;49.744;7.012;2023-01-26T05:55:56;96298.34;;;-3.08;100.00
33454;BME280;39400;49.744;7.012;2023-01-26T05:58:23;96295.69;;;-3.41;100.00
33454;BME280;39400;49.744;7.012;2023-01-26T06:00:49;96297.47;;;-3.36;100.00
33454;BME280;39400;49.744;7.012;2023-01-26T06:03:21;96292.34;;;-3.32;100.00
33454;BME280;39400;49.744;7.012;2023-01-26T06:05:52;96293.69;;;-3.49;100.00
33454;BME280;39400;49.744;7.012;2023-01-26T06:08:22;96285.69;;;-3.54;100.00
33454;BME280;39400;49.744;7.012;2023-01-26T06:10:58;96286.34;;;-3.16;100.00
33454;BME280;39400;49.744;7.012;2023-01-26T06:13:37;96286.97;;;-3.32;100.00
33454;BME280;39400;49.744;7.012;2023-01-26T06:16:21;96283.53;;;-3.52;100.00
33454;BME280;39400;49.744;7.012;2023-01-26T06:18:47;96285.00;;;-3.60;100.00
33454;BME280;39400;49.744;7.012;2023-01-26T06:21:14;96290.91;;;-3.44;100.00
33454;BME280;39400;49.744;7.012;2023-01-26T06:23:39;96280.66;;;-3.42;100.00
33454;BME280;39400;49.744;7.012;2023-01-26T06:26:04;96292.94;;;-3.36;100.00
33454;BME280;39400;49.744;7.012;2023-01-26T06:28:30;96286.69;;;-3.64;100.00
33454;BME280;39400;49.744;7.012;2023-01-26T06:31:00;96297.88;;;-3.43;100.00
33454;BME280;39400;49.744;7.012;2023-01-26T06:33:27;96292.59;;;-3.48;100.00
33454;BME280;39400;49.744;7.012;2023-01-26T06:35:53;96299.41;;;-3.69;100.00
33454;BME280;39400;49.744;7.012;2023-01-26T06:38:19;96303.75;;;-3.73;100.00
33454;BME280;39400;49.744;7.012;2023-01-26T06:40:44;96300.13;;;-3.83;100.00
33454;BME280;39400;49.744;7.012;2023-01-26T06:43:09;96309.72;;;-3.76;100.00
33454;BME280;39400;49.744;7.012;2023-01-26T06:45:35;96301.78;;;-3.68;100.00
33454;BME280;39400;49.744;7.012;2023-01-26T06:48:00;96303.56;;;-3.77;100.00
33454;BME280;39400;49.744;7.012;2023-01-26T06:50:30;96303.34;;;-3.80;100.00
33454;BME280;39400;49.744;7.012;2023-01-26T06:52:59;96307.16;;;-3.68;100.00
33454;BME280;39400;49.744;7.012;2023-01-26T06:55:38;96307.53;;;-3.74;100.00
33454;BME280;39400;49.744;7.012;2023-01-26T06:58:22;96303.75;;;-3.73;100.00
33454;BME280;39400;49.744;7.012;2023-01-26T07:01:18;96313.88;;;-3.84;100.00
33454;BME280;39400;49.744;7.012;2023-01-26T07:03:44;96318.94;;;-3.50;100.00
33454;BME280;39400;49.744;7.012;2023-01-26T07:06:09;96317.00;;;-3.30;100.00
33454;BME280;39400;49.744;7.012;2023-01-26T07:08:35;96319.81;;;-3.36;100.00
33454;BME280;39400;49.744;7.012;2023-01-26T07:11:00;96319.09;;;-3.41;100.00
33454;BME280;39400;49.744;7.012;2023-01-26T07:13:25;96321.06;;;-3.47;100.00
33454;BME280;39400;49.744;7.012;2023-01-26T07:15:51;96322.72;;;-3.51;100.00
33454;BME280;39400;49.744;7.012;2023-01-26T07:18:16;96329.78;;;-3.55;100.00
33454;BME280;39400;49.744;7.012;2023-01-26T07:20:41;96325.72;;;-3.52;100.00
33454;BME280;39400;49.744;7.012;2023-01-26T07:23:06;96324.94;;;-3.53;100.00
33454;BME280;39400;49.744;7.012;2023-01-26T07:25:32;96329.88;;;-3.60;100.00
33454;BME280;39400;49.744;7.012;2023-01-26T07:27:58;96340.78;;;-3.70;100.00
33454;BME280;39400;49.744;7.012;2023-01-26T07:30:24;96341.00;;;-3.86;100.00
33454;BME280;39400;49.744;7.012;2023-01-26T07:32:50;96347.53;;;-3.92;100.00
33454;BME280;39400;49.744;7.012;2023-01-26T07:35:15;96352.75;;;-3.82;100.00
33454;BME280;39400;49.744;7.012;2023-01-26T07:37:41;96356.22;;;-3.95;100.00
33454;BME280;39400;49.744;7.012;2023-01-26T07:40:06;96357.78;;;-3.94;100.00
33454;BME280;39400;49.744;7.012;2023-01-26T07:42:32;96354.53;;;-3.91;100.00
33454;BME280;39400;49.744;7.012;2023-01-26T07:45:16;96363.75;;;-3.97;100.00
33454;BME280;39400;49.744;7.012;2023-01-26T07:47:41;96360.75;;;-3.95;100.00
33454;BME280;39400;49.744;7.012;2023-01-26T07:50:07;96368.91;;;-4.00;100.00
33454;BME280;39400;49.744;7.012;2023-01-26T07:52:32;96361.28;;;-3.93;100.00
33454;BME280;39400;49.744;7.012;2023-01-26T07:54:58;96360.09;;;-4.06;100.00
33454;BME280;39400;49.744;7.012;2023-01-26T07:57:23;96365.31;;;-3.96;100.00
33454;BME280;39400;49.744;7.012;2023-01-26T07:59:48;96365.91;;;-3.80;100.00
33454;BME280;39400;49.744;7.012;2023-01-26T08:02:14;96366.13;;;-3.76;100.00
33454;BME280;39400;49.744;7.012;2023-01-26T08:04:39;96377.84;;;-4.05;100.00
33454;BME280;39400;49.744;7.012;2023-01-26T08:07:04;96365.25;;;-4.10;100.00
33454;BME280;39400;49.744;7.012;2023-01-26T08:09:29;96369.78;;;-4.05;100.00
33454;BME280;39400;49.744;7.012;2023-01-26T08:11:56;96359.16;;;-3.96;100.00
33454;BME280;39400;49.744;7.012;2023-01-26T08:14:21;96363.75;;;-3.97;100.00
33454;BME280;39400;49.744;7.012;2023-01-26T08:16:46;96358.59;;;-3.93;100.00
33454;BME280;39400;49.744;7.012;2023-01-26T08:19:12;96364.19;;;-3.90;100.00
33454;BME280;39400;49.744;7.012;2023-01-26T08:21:37;96363.09;;;-4.08;100.00
33454;BME280;39400;49.744;7.012;2023-01-26T08:24:03;96363.16;;;-3.94;100.00
33454;BME280;39400;49.744;7.012;2023-01-26T08:26:28;96359.53;;;-4.03;100.00
33454;BME280;39400;49.744;7.012;2023-01-26T08:28:53;96365.03;;;-4.13;100.00
33454;BME280;39400;49.744;7.012;2023-01-26T08:31:19;96359.16;;;-4.15;100.00
33454;BME280;39400;49.744;7.012;2023-01-26T08:33:49;96367.00;;;-4.19;100.00
33454;BME280;39400;49.744;7.012;2023-01-26T08:36:14;96367.66;;;-4.08;100.00
33454;BME280;39400;49.744;7.012;2023-01-26T08:38:40;96371.72;;;-4.11;100.00
33454;BME280;39400;49.744;7.012;2023-01-26T08:41:07;96365.03;;;-4.13;100.00
33454;BME280;39400;49.744;7.012;2023-01-26T08:43:33;96372.47;;;-4.05;100.00
33454;BME280;39400;49.744;7.012;2023-01-26T08:45:58;96373.03;;;-4.08;100.00
33454;BME280;39400;49.744;7.012;2023-01-26T08:48:25;96373.03;;;-4.08;100.00
33454;BME280;39400;49.744;7.012;2023-01-26T08:50:54;96372.31;;;-3.95;100.00
33454;BME280;39400;49.744;7.012;2023-01-26T08:53:20;96385.22;;;-3.97;100.00
33454;BME280;39400;49.744;7.012;2023-01-26T08:55:45;96378.41;;;-3.89;100.00
33454;BME280;39400;49.744;7.012;2023-01-26T08:58:10;96384.22;;;-4.01;100.00
33454;BME280;39400;49.744;7.012;2023-01-26T09:00:36;96385.66;;;-3.90;100.00
33454;BME280;39400;49.744;7.012;2023-01-26T09:03:03;96384.50;;;-3.84;100.00
33454;BME280;39400;49.744;7.012;2023-01-26T09:05:34;96381.31;;;-3.86;100.00
33454;BME280;39400;49.744;7.012;2023-01-26T09:07:59;96369.47;;;-3.85;100.00
33454;BME280;39400;49.744;7.012;2023-01-26T09:10:25;96373.13;;;-3.94;100.00
33454;BME280;39400;49.744;7.012;2023-01-26T09:12:50;96369.53;;;-3.90;100.00
33454;BME280;39400;49.744;7.012;2023-01-26T09:15:16;96370.84;;;-3.68;100.00
33454;BME280;39400;49.744;7.012;2023-01-26T09:17:41;96377.97;;;-3.59;100.00
33454;BME280;39400;49.744;7.012;2023-01-26T09:20:09;96370.03;;;-3.69;100.00
33454;BME280;39400;49.744;7.012;2023-01-26T09:22:35;96366.44;;;-3.97;100.00
33454;BME280;39400;49.744;7.012;2023-01-26T09:25:01;96372.66;;;-3.83;100.00
33454;BME280;39400;49.744;7.012;2023-01-26T09:27:26;96363.59;;;-3.87;100.00
33454;BME280;39400;49.744;7.012;2023-01-26T09:29:51;96369.47;;;-3.66;100.00
33454;BME280;39400;49.744;7.012;2023-01-26T09:32:17;96371.63;;;-3.68;100.00
33454;BME280;39400;49.744;7.012;2023-01-26T09:34:42;96375.94;;;-3.67;100.00
33454;BME280;39400;49.744;7.012;2023-01-26T09:37:08;96368.47;;;-3.70;100.00
33454;BME280;39400;49.744;7.012;2023-01-26T09:39:33;96376.22;;;-3.68;100.00
33454;BME280;39400;49.744;7.012;2023-01-26T09:42:14;96369.38;;;-3.42;100.00
33454;BME280;39400;49.744;7.012;2023-01-26T09:44:58;96363.25;;;-3.47;100.00
33454;BME280;39400;49.744;7.012;2023-01-26T09:50:25;96366.09;;;-3.39;100.00
33454;BME280;39400;49.744;7.012;2023-01-26T09:53:01;96370.03;;;-3.17;100.00
33454;BME280;39400;49.744;7.012;2023-01-26T09:55:27;96368.69;;;-3.01;100.00
33454;BME280;39400;49.744;7.012;2023-01-26T09:58:02;96365.84;;;-3.09;100.00
33454;BME280;39400;49.744;7.012;2023-01-26T10:00:33;96370.50;;;-2.82;100.00
33454;BME280;39400;49.744;7.012;2023-01-26T10:09:14;96361.06;;;-2.52;100.00
33454;BME280;39400;49.744;7.012;2023-01-26T10:11:52;96358.34;;;-2.38;100.00
33454;BME280;39400;49.744;7.012;2023-01-26T10:14:40;96363.75;;;-2.66;100.00
33454;BME280;39400;49.744;7.012;2023-01-26T10:17:17;96364.72;;;-2.34;100.00
33454;BME280;39400;49.744;7.012;2023-01-26T10:19:48;96358.94;;;-2.42;100.00
33454;BME280;39400;49.744;7.012;2023-01-26T10:22:19;96363.34;;;-2.59;100.00
33454;BME280;39400;49.744;7.012;2023-01-26T10:24:48;96356.94;;;-2.50;100.00
33454;BME280;39400;49.744;7.012;2023-01-26T10:27:14;96363.81;;;-2.44;100.00
33454;BME280;39400;49.744;7.012;2023-01-26T10:29:39;96356.47;;;-2.52;100.00
33454;BME280;39400;49.744;7.012;2023-01-26T10:32:04;96357.53;;;-2.39;100.00
33454;BME280;39400;49.744;7.012;2023-01-26T10:34:31;96368.28;;;-2.25;100.00
33454;BME280;39400;49.744;7.012;2023-01-26T10:37:25;96363.94;;;-2.21;100.00
33454;BME280;39400;49.744;7.012;2023-01-26T10:42:28;96368.59;;;-2.13;100.00
33454;BME280;39400;49.744;7.012;2023-01-26T10:44:56;96360.34;;;-2.30;100.00
33454;BME280;39400;49.744;7.012;2023-01-26T10:47:22;96355.16;;;-2.41;100.00
33454;BME280;39400;49.744;7.012;2023-01-26T10:49:48;96355.34;;;-2.23;100.00
33454;BME280;39400;49.744;7.012;2023-01-26T10:54:40;96352.66;;;-2.23;100.00
33454;BME280;39400;49.744;7.012;2023-01-26T10:57:17;96347.16;;;-2.18;100.00
33454;BME280;39400;49.744;7.012;2023-01-26T10:59:50;96348.78;;;-2.31;100.00
33454;BME280;39400;49.744;7.012;2023-01-26T11:02:22;96348.25;;;-2.19;100.00
33454;BME280;39400;49.744;7.012;2023-01-26T11:05:14;96333.78;;;-2.23;100.00
33454;BME280;39400;49.744;7.012;2023-01-26T11:07:44;96334.69;;;-2.14;100.00
33454;BME280;39400;49.744;7.012;2023-01-26T11:12:41;96336.94;;;-1.94;100.00
33454;BME280;39400;49.744;7.012;2023-01-26T11:17:56;96323.09;;;-1.78;100.00
33454;BME280;39400;49.744;7.012;2023-01-26T11:36:49;96319.25;;;-1.63;100.00
33454;BME280;39400;49.744;7.012;2023-01-26T11:39:25;96309.72;;;-1.70;100.00
33454;BME280;39400;49.744;7.012;2023-01-26T11:44:33;96303.50;;;-1.70;100.00
33454;BME280;39400;49.744;7.012;2023-01-26T11:50:33;96292.06;;;-2.12;100.00
33454;BME280;39400;49.744;7.012;2023-01-26T11:53:22;96291.78;;;-2.10;100.00
33454;BME280;39400;49.744;7.012;2023-01-26T11:56:06;96296.44;;;-2.02;100.00
33454;BME280;39400;49.744;7.012;2023-01-26T11:58:40;96289.66;;;-2.00;100.00
33454;BME280;39400;49.744;7.012;2023-01-26T12:01:39;96286.66;;;-2.34;100.00
33454;BME280;39400;49.744;7.012;2023-01-26T12:04:14;96296.31;;;-2.33;100.00
33454;BME280;39400;49.744;7.012;2023-01-26T12:06:44;96284.97;;;-2.58;100.00
33454;BME280;39400;49.744;7.012;2023-01-26T12:14:21;96277.00;;;-2.49;100.00
33454;BME280;39400;49.744;7.012;2023-01-26T12:19:39;96272.34;;;-2.21;100.00
33454;BME280;39400;49.744;7.012;2023-01-26T12:22:13;96275.84;;;-1.98;100.00
33454;BME280;39400;49.744;7.012;2023-01-26T12:24:49;96271.53;;;-1.85;100.00
33454;BME280;39400;49.744;7.012;2023-01-26T12:27:27;96268.28;;;-1.74;100.00
33454;BME280;39400;49.744;7.012;2023-01-26T12:32:44;96264.91;;;-1.57;100.00
33454;BME280;39400;49.744;7.012;2023-01-26T12:35:11;96253.50;;;-1.54;100.00
33454;BME280;39400;49.744;7.012;2023-01-26T12:37:44;96255.19;;;-1.35;100.00
33454;BME280;39400;49.744;7.012;2023-01-26T12:40:35;96247.44;;;-1.28;100.00
33454;BME280;39400;49.744;7.012;2023-01-26T12:43:37;96247.31;;;-1.23;100.00
33454;BME280;39400;49.744;7.012;2023-01-26T12:46:03;96240.63;;;-1.34;100.00
33454;BME280;39400;49.744;7.012;2023-01-26T12:48:40;96237.03;;;-1.21;100.00
33454;BME280;39400;49.744;7.012;2023-01-26T12:51:11;96234.09;;;-1.33;100.00
33454;BME280;39400;49.744;7.012;2023-01-26T12:53:52;96241.50;;;-1.08;100.00
33454;BME280;39400;49.744;7.012;2023-01-26T12:56:30;96222.38;;;-1.29;100.00
33454;BME280;39400;49.744;7.012;2023-01-26T12:59:00;96233.56;;;-1.13;100.00
33454;BME280;39400;49.744;7.012;2023-01-26T13:01:37;96229.28;;;-1.14;100.00
33454;BME280;39400;49.744;7.012;2023-01-26T13:04:12;96219.72;;;-1.20;100.00
33454;BME280;39400;49.744;7.012;2023-01-26T13:06:38;96233.59;;;-1.04;100.00
33454;BME280;39400;49.744;7.012;2023-01-26T13:11:45;96220.13;;;-0.96;100.00
33454;BME280;39400;49.744;7.012;2023-01-26T13:25:11;96213.69;;;-0.60;100.00
33454;BME280;39400;49.744;7.012;2023-01-26T13:27:34;96220.53;;;-0.71;100.00
33454;BME280;39400;49.744;7.012;2023-01-26T13:35:16;96232.84;;;-0.96;100.00
33454;BME280;39400;49.744;7.012;2023-01-26T13:37:55;96236.31;;;-0.96;100.00
33454;BME280;39400;49.744;7.012;2023-01-26T13:40:26;96230.13;;;-0.96;100.00
33454;BME280;39400;49.744;7.012;2023-01-26T13:43:00;96234.22;;;-1.07;100.00
33454;BME280;39400;49.744;7.012;2023-01-26T13:45:45;96231.66;;;-1.12;100.00
33454;BME280;39400;49.744;7.012;2023-01-26T13:48:19;96238.81;;;-1.08;100.00
33454;BME280;39400;49.744;7.012;2023-01-26T13:50:50;96241.03;;;-1.10;100.00
33454;BME280;39400;49.744;7.012;2023-01-26T13:53:35;96235.31;;;-1.17;100.00
33454;BME280;39400;49.744;7.012;2023-01-26T13:56:04;96253.34;;;-1.26;100.00
33454;BME280;39400;49.744;7.012;2023-01-26T13:58:29;96252.38;;;-1.30;100.00
33454;BME280;39400;49.744;7.012;2023-01-26T14:01:06;96252.97;;;-1.33;100.00
33454;BME280;39400;49.744;7.012;2023-01-26T14:03:35;96254.31;;;-1.22;100.00
33454;BME280;39400;49.744;7.012;2023-01-26T14:06:08;96268.91;;;-1.23;100.00
33454;BME280;39400;49.744;7.012;2023-01-26T14:08:35;96262.88;;;-1.20;100.00
33454;BME280;39400;49.744;7.012;2023-01-26T14:11:03;96263.69;;;-1.20;100.00
33454;BME280;39400;49.744;7.012;2023-01-26T14:13:35;96258.72;;;-1.26;100.00
33454;BME280;39400;49.744;7.012;2023-01-26T14:16:03;96267.06;;;-1.14;100.00
33454;BME280;39400;49.744;7.012;2023-01-26T14:18:29;96269.88;;;-1.19;100.00
33454;BME280;39400;49.744;7.012;2023-01-26T14:21:13;96270.50;;;-1.22;100.00